Time;durP1;ratioP1;P1;durP2;ratioP2;P2;SDS_P1;SDS_P2;PMS_P1;PMS_P2;Temp;Humidity;BMP_temperature;BMP_pressure;BME280_temperature;BME280_humidity;BME280_pressure;Samples;Min_cycle;Max_cycle;Signal;HPM_P1;HPM_P2
2021/12/30 00:05:25;;;;;;;20.23;3.95;;;;;;;7.72;100.00;95829.88;30438229;19;20643;-74
2021/12/30 00:15:26;;;;;;;19.27;3.88;;;;;;;7.79;100.00;95851.47;30477301;19;20448;-75
2021/12/30 00:25:26;;;;;;;18.73;3.28;;;;;;;7.91;100.00;95866.91;30440778;19;20006;-74
2021/12/30 00:35:27;;;;;;;26.15;4.00;;;;;;;8.03;100.00;95882.38;30477084;19;20094;-73
2021/12/30 00:45:29;;;;;;;19.75;4.05;;;;;;;8.13;100.00;95877.00;30431751;19;20988;-74
2021/12/30 00:55:30;;;;;;;19.23;3.35;;;;;;;8.20;100.00;95898.53;30505284;19;19999;-74
2021/12/30 01:05:30;;;;;;;30.83;4.47;;;;;;;8.34;100.00;95906.59;30469142;19;20539;-74
2021/12/30 01:15:44;;;;;;;19.83;3.22;;;;;;;8.38;100.00;95912.09;30411519;19;20022;-74
2021/12/30 01:25:45;;;;;;;18.23;3.65;;;;;;;8.46;100.00;95911.53;30453233;19;20035;-74
2021/12/30 01:35:45;;;;;;;18.08;3.65;;;;;;;8.54;100.00;95912.72;30520796;19;20007;-74
2021/12/30 01:45:46;;;;;;;17.08;3.50;;;;;;;8.69;100.00;95922.34;30437383;19;20014;-72
2021/12/30 01:55:49;;;;;;;18.52;3.42;;;;;;;8.85;100.00;95942.25;30401953;19;20097;-75
2021/12/30 02:05:51;;;;;;;22.92;3.75;;;;;;;8.84;100.00;95956.50;30425495;19;20495;-73
2021/12/30 02:15:51;;;;;;;18.92;2.97;;;;;;;8.93;100.00;95961.94;30509757;19;20007;-72
2021/12/30 02:25:54;;;;;;;14.18;2.33;;;;;;;8.97;100.00;95958.47;30430533;19;20659;-73
2021/12/30 02:35:56;;;;;;;18.83;2.40;;;;;;;8.98;100.00;95965.31;30426688;19;20353;-74
2021/12/30 02:45:58;;;;;;;6.68;1.55;;;;;;;9.20;100.00;95964.78;30500962;19;20007;-73
2021/12/30 02:55:59;;;;;;;5.80;1.00;;;;;;;9.22;100.00;95960.00;30471592;19;20463;-73
2021/12/30 03:06:01;;;;;;;6.30;1.10;;;;;;;9.32;100.00;95968.88;30466932;19;20355;-73
2021/12/30 03:16:11;;;;;;;3.90;1.20;;;;;;;9.37;100.00;95977.50;30450058;19;20010;-72
2021/12/30 03:26:13;;;;;;;2.80;1.02;;;;;;;9.48;100.00;95980.81;30512683;19;20006;-74
2021/12/30 03:36:14;;;;;;;2.20;0.88;;;;;;;9.55;100.00;95983.09;30465633;19;20019;-73
2021/12/30 03:46:15;;;;;;;4.60;0.90;;;;;;;9.63;100.00;95993.81;30486642;19;20074;-73
2021/12/30 03:56:19;;;;;;;3.70;1.02;;;;;;;9.69;100.00;95997.19;30492246;19;20006;-73
2021/12/30 04:06:20;;;;;;;4.03;0.80;;;;;;;9.74;100.00;96020.91;30463336;19;20465;-74
2021/12/30 04:16:20;;;;;;;2.88;1.08;;;;;;;9.81;100.00;96024.00;30443561;19;20023;-75
2021/12/30 04:26:21;;;;;;;4.43;0.90;;;;;;;9.83;100.00;96032.44;30463867;19;20017;-73
2021/12/30 04:36:21;;;;;;;4.95;1.10;;;;;;;9.92;100.00;96045.00;30455581;19;20007;-73
2021/12/30 04:46:22;;;;;;;2.70;1.02;;;;;;;9.96;100.00;96046.00;30438116;19;20006;-73
2021/12/30 04:56:22;;;;;;;3.38;1.27;;;;;;;10.00;100.00;96052.31;30440594;19;20007;-73
2021/12/30 05:06:22;;;;;;;3.05;0.77;;;;;;;10.08;100.00;96064.09;30440918;19;20070;-73
2021/12/30 05:16:24;;;;;;;2.95;1.00;;;;;;;10.04;100.00;96075.25;30441105;19;20011;-73
2021/12/30 05:26:27;;;;;;;2.25;0.80;;;;;;;10.16;100.00;96079.34;30450318;19;20398;-73
2021/12/30 05:36:28;;;;;;;2.92;0.65;;;;;;;10.21;100.00;96095.91;30478661;19;20035;-73
2021/12/30 05:46:28;;;;;;;2.45;1.05;;;;;;;10.21;100.00;96108.38;30466152;19;20006;-73
2021/12/30 05:56:29;;;;;;;2.60;0.88;;;;;;;10.36;100.00;96115.31;30473622;19;20006;-73
2021/12/30 06:06:29;;;;;;;2.17;0.90;;;;;;;10.30;100.00;96143.75;30455214;19;20606;-72
2021/12/30 06:16:31;;;;;;;3.03;1.00;;;;;;;10.34;100.00;96136.81;30463695;19;20245;-73
2021/12/30 06:26:31;;;;;;;5.72;1.30;;;;;;;10.38;100.00;96144.94;30472678;19;20006;-72
2021/12/30 06:36:32;;;;;;;2.53;0.70;;;;;;;10.45;100.00;96143.53;30481351;19;20084;-72
2021/12/30 06:46:32;;;;;;;1.70;0.60;;;;;;;10.48;100.00;96158.03;30537705;19;20452;-72
2021/12/30 06:56:33;;;;;;;1.95;0.60;;;;;;;10.54;100.00;96162.22;30438138;19;20428;-72
2021/12/30 07:08:28;;;;;;;2.38;0.50;;;;;;;10.54;100.00;96161.41;30558779;19;148678;-72
2021/12/30 07:18:29;;;;;;;1.45;0.50;;;;;;;10.62;100.00;96172.16;30276785;19;20070;-75
2021/12/30 07:28:29;;;;;;;1.63;0.55;;;;;;;10.63;100.00;96176.38;30606877;19;19995;-74
2021/12/30 07:38:30;;;;;;;3.78;0.75;;;;;;;10.64;100.00;96190.41;30600201;19;20396;-74
2021/12/30 07:48:30;;;;;;;3.95;0.90;;;;;;;10.68;100.00;96209.16;30574527;19;20006;-73
2021/12/30 07:58:30;;;;;;;2.45;0.80;;;;;;;10.67;100.00;96212.91;30606462;19;20006;-75
2021/12/30 08:08:31;;;;;;;1.33;0.70;;;;;;;10.62;100.00;96221.69;30595215;19;20040;-75
2021/12/30 08:18:31;;;;;;;4.53;0.95;;;;;;;10.65;100.00;96221.13;30446267;19;20002;-76
2021/12/30 08:28:31;;;;;;;2.10;0.80;;;;;;;10.67;100.00;96236.75;30528636;19;20013;-77
2021/12/30 08:38:32;;;;;;;2.65;1.00;;;;;;;10.67;100.00;96240.19;30554738;19;20440;-77
2021/12/30 08:48:32;;;;;;;2.17;0.85;;;;;;;10.71;100.00;96256.28;30561143;19;20442;-77
2021/12/30 08:58:32;;;;;;;2.00;0.70;;;;;;;10.72;100.00;96258.63;30549961;19;20002;-77
2021/12/30 09:08:33;;;;;;;2.47;0.85;;;;;;;10.77;100.00;96274.47;30553602;19;20004;-76
2021/12/30 09:18:33;;;;;;;1.65;0.57;;;;;;;10.83;100.00;96285.81;30552743;19;20007;-75
2021/12/30 09:28:34;;;;;;;2.10;0.80;;;;;;;10.89;100.00;96279.34;30531622;19;20421;-76
2021/12/30 09:38:34;;;;;;;1.23;0.40;;;;;;;10.94;100.00;96291.75;30482308;19;20010;-76
2021/12/30 09:48:34;;;;;;;1.63;0.70;;;;;;;10.97;100.00;96307.06;30474664;19;20002;-75
2021/12/30 09:58:35;;;;;;;2.13;0.70;;;;;;;11.09;100.00;96318.00;30486415;19;20018;-77
2021/12/30 10:08:40;;;;;;;4.80;0.82;;;;;;;11.14;100.00;96309.22;30468299;19;20006;-76
2021/12/30 10:18:53;;;;;;;2.35;0.73;;;;;;;11.12;100.00;96324.63;30493477;19;20549;-76
2021/12/30 10:29:00;;;;;;;1.13;0.40;;;;;;;11.01;100.00;96330.06;30476210;19;20764;-76
2021/12/30 10:49:32;;;;;;;1.52;0.50;;;;;;;11.43;100.00;96325.72;30458777;19;20006;-77
2021/12/30 10:59:36;;;;;;;2.65;0.80;;;;;;;11.37;100.00;96320.78;30542472;19;20474;-78
2021/12/30 11:09:48;;;;;;;4.00;0.70;;;;;;;11.40;100.00;96312.25;30452900;19;20011;-76
2021/12/30 11:19:52;;;;;;;3.22;1.27;;;;;;;11.51;100.00;96303.06;30518351;19;20027;-77
2021/12/30 11:29:57;;;;;;;2.83;1.35;;;;;;;11.46;100.00;96303.94;30492833;19;20078;-76
2021/12/30 11:50:10;;;;;;;4.90;1.50;;;;;;;11.09;100.00;96294.16;30479109;19;21204;-77
2021/12/30 12:00:36;;;;;;;6.03;2.00;;;;;;;10.89;100.00;96308.50;30452917;19;20349;-75
2021/12/30 12:21:01;;;;;;;6.93;2.67;;;;;;;10.88;100.00;96311.44;30465443;19;20058;-78
2021/12/30 12:31:03;;;;;;;6.40;2.17;;;;;;;10.95;100.00;96314.50;30492375;19;19999;-77
2021/12/30 12:41:20;;;;;;;5.82;2.05;;;;;;;10.94;100.00;96310.28;30513116;19;20010;-78
2021/12/30 12:51:27;;;;;;;7.47;2.00;;;;;;;10.94;100.00;96303.13;30494477;19;20019;-78
2021/12/30 13:01:30;;;;;;;6.32;2.30;;;;;;;10.89;100.00;96294.44;30511818;19;20519;-78
2021/12/30 13:11:32;;;;;;;3.20;1.40;;;;;;;10.90;100.00;96302.13;30468878;19;20007;-76
2021/12/30 13:22:01;;;;;;;6.10;1.17;;;;;;;10.88;100.00;96308.78;30501497;19;20183;-76
2021/12/30 13:32:10;;;;;;;4.18;1.30;;;;;;;10.75;100.00;96310.28;30488355;19;20018;-76
2021/12/30 13:42:13;;;;;;;3.20;0.98;;;;;;;10.77;100.00;96318.75;30525681;19;20341;-76
2021/12/30 13:52:14;;;;;;;3.03;1.20;;;;;;;10.83;100.00;96322.91;30507068;19;20453;-78
2021/12/30 14:02:14;;;;;;;4.18;1.27;;;;;;;10.73;100.00;96317.72;30530952;19;19998;-77
2021/12/30 14:12:15;;;;;;;4.47;1.63;;;;;;;10.75;100.00;96321.66;30452889;19;20411;-77
2021/12/30 14:22:16;;;;;;;6.20;1.60;;;;;;;10.61;100.00;96340.13;30492703;19;20125;-77
2021/12/30 14:32:17;;;;;;;7.38;2.20;;;;;;;10.51;100.00;96347.41;30472372;19;20014;-77
2021/12/30 14:42:27;;;;;;;8.38;2.00;;;;;;;10.41;100.00;96375.56;30522382;19;20543;-77
2021/12/30 14:52:39;;;;;;;10.55;2.20;;;;;;;10.33;100.00;96386.00;30487500;19;19999;-77
2021/12/30 15:02:40;;;;;;;11.93;2.78;;;;;;;10.25;100.00;96396.09;30472902;19;20007;-76
2021/12/30 15:12:43;;;;;;;9.57;2.85;;;;;;;10.19;100.00;96405.16;30457149;19;20006;-77
2021/12/30 15:22:43;;;;;;;8.77;2.80;;;;;;;10.16;100.00;96408.38;30469309;19;20027;-77
2021/12/30 15:32:43;;;;;;;11.48;2.97;;;;;;;10.11;100.00;96421.63;30490893;19;20613;-77
2021/12/30 15:42:46;;;;;;;11.30;3.22;;;;;;;10.06;100.00;96432.28;30495940;19;20014;-77
2021/12/30 15:52:50;;;;;;;13.75;3.90;;;;;;;9.99;100.00;96437.09;30482442;19;20010;-77
2021/12/30 16:02:51;;;;;;;12.38;4.35;;;;;;;9.99;100.00;96445.03;30498352;19;20025;-76
2021/12/30 16:12:52;;;;;;;11.68;3.95;;;;;;;10.00;100.00;96459.84;30498920;19;20062;-76
2021/12/30 16:22:52;;;;;;;9.90;3.85;;;;;;;9.97;100.00;96455.09;30475553;19;20027;-76
2021/12/30 16:32:53;;;;;;;12.98;3.85;;;;;;;9.92;100.00;96463.09;30429006;19;20002;-72
2021/12/30 16:42:53;;;;;;;13.45;4.60;;;;;;;9.92;100.00;96479.75;30420940;19;20006;-74
2021/12/30 16:52:54;;;;;;;12.30;5.20;;;;;;;9.94;100.00;96484.78;30422186;19;20006;-72
2021/12/30 17:02:54;;;;;;;16.08;4.95;;;;;;;9.92;100.00;96500.91;30509978;19;20894;-74
2021/12/30 17:12:54;;;;;;;16.23;5.10;;;;;;;9.90;100.00;96507.56;30469474;19;20079;-73
2021/12/30 17:22:55;;;;;;;13.45;5.00;;;;;;;9.89;100.00;96516.56;30440345;19;20077;-74
2021/12/30 17:32:56;;;;;;;14.48;5.35;;;;;;;9.90;100.00;96518.94;30503497;19;20462;-72
2021/12/30 17:42:56;;;;;;;15.32;5.82;;;;;;;9.89;100.00;96529.78;30507302;19;20011;-74
2021/12/30 17:52:59;;;;;;;16.63;5.63;;;;;;;9.92;100.00;96516.00;30445762;19;20025;-74
2021/12/30 18:03:01;;;;;;;18.23;6.90;;;;;;;9.83;100.00;96519.25;30411136;19;20014;-73
2021/12/30 18:13:03;;;;;;;19.45;6.90;;;;;;;9.81;100.00;96521.38;30477908;19;20015;-73
2021/12/30 18:23:04;;;;;;;17.75;6.70;;;;;;;9.81;100.00;96526.66;30467202;19;20536;-73
2021/12/30 18:33:05;;;;;;;15.68;5.57;;;;;;;9.82;100.00;96517.66;30483635;19;20017;-74
2021/12/30 18:43:06;;;;;;;16.25;6.22;;;;;;;9.84;100.00;96527.97;30457330;19;20074;-73
2021/12/30 18:53:06;;;;;;;12.75;5.43;;;;;;;9.86;100.00;96541.72;30488319;19;20044;-74
2021/12/30 19:03:07;;;;;;;11.57;4.00;;;;;;;9.83;100.00;96537.75;30487241;19;20909;-73
2021/12/30 19:13:14;;;;;;;9.75;3.80;;;;;;;9.84;100.00;96544.63;30479719;19;20010;-73
2021/12/30 19:23:16;;;;;;;8.00;3.97;;;;;;;9.85;100.00;96548.09;30481820;19;20007;-74
2021/12/30 19:33:17;;;;;;;12.75;4.95;;;;;;;9.82;100.00;96554.69;30493317;19;20600;-73
2021/12/30 19:43:17;;;;;;;13.85;5.78;;;;;;;9.85;100.00;96546.22;30485375;19;20404;-73
2021/12/30 19:53:18;;;;;;;19.15;7.32;;;;;;;9.85;100.00;96561.31;30491671;19;20046;-73
2021/12/30 20:03:23;;;;;;;14.68;8.77;;;;;;;9.88;100.00;96563.41;30487489;19;20011;-73
2021/12/30 20:13:25;;;;;;;15.68;8.60;;;;;;;9.85;100.00;96570.03;30508851;19;20830;-73
2021/12/30 20:23:25;;;;;;;25.15;10.48;;;;;;;9.93;100.00;96579.25;30526975;19;20011;-74
2021/12/30 20:33:26;;;;;;;25.13;12.02;;;;;;;9.85;100.00;96582.47;30492256;19;20018;-73
2021/12/30 20:43:26;;;;;;;28.35;11.60;;;;;;;9.88;100.00;96583.78;30500187;19;20086;-73
2021/12/30 20:53:29;;;;;;;23.85;10.77;;;;;;;9.83;100.00;96598.63;30481476;19;20015;-73
2021/12/30 21:03:31;;;;;;;23.35;10.45;;;;;;;9.82;100.00;96617.41;30499903;19;20031;-73
2021/12/30 21:13:32;;;;;;;30.27;13.23;;;;;;;9.84;100.00;96615.28;30514112;19;20484;-73
2021/12/30 21:23:32;;;;;;;27.67;12.75;;;;;;;9.80;100.00;96625.59;30476710;19;20506;-73
2021/12/30 21:33:33;;;;;;;25.73;12.90;;;;;;;9.78;100.00;96633.03;30522080;19;20014;-74
2021/12/30 21:43:33;;;;;;;34.25;13.05;;;;;;;9.77;100.00;96633.31;30491974;19;20052;-73
2021/12/30 21:53:35;;;;;;;32.05;13.55;;;;;;;9.73;100.00;96629.63;30507634;19;20010;-74
2021/12/30 22:03:36;;;;;;;37.08;12.93;;;;;;;9.68;100.00;96633.06;30496320;19;20032;-73
2021/12/30 22:13:36;;;;;;;33.28;12.88;;;;;;;9.68;100.00;96630.41;30481465;19;20010;-73
2021/12/30 22:23:37;;;;;;;24.40;11.30;;;;;;;9.69;100.00;96621.44;30491845;19;20585;-73
2021/12/30 22:33:37;;;;;;;29.67;10.23;;;;;;;9.74;100.00;96621.41;30478819;19;20674;-74
2021/12/30 22:43:37;;;;;;;31.02;11.65;;;;;;;9.70;100.00;96609.00;30491113;19;20035;-73
2021/12/30 22:53:41;;;;;;;23.98;11.80;;;;;;;9.63;100.00;96607.44;30475079;19;20409;-73
2021/12/30 23:03:50;;;;;;;26.20;10.75;;;;;;;9.58;100.00;96617.22;30495843;19;20474;-74
2021/12/30 23:13:51;;;;;;;28.42;11.32;;;;;;;9.61;100.00;96616.72;30482427;19;20033;-74
2021/12/30 23:23:53;;;;;;;22.83;10.65;;;;;;;9.67;100.00;96620.91;30489828;19;20062;-73
2021/12/30 23:33:53;;;;;;;28.67;10.30;;;;;;;9.59;100.00;96619.63;30469021;19;20021;-72
2021/12/30 23:43:53;;;;;;;28.25;10.60;;;;;;;9.57;100.00;96623.59;30509952;19;20011;-73
2021/12/30 23:53:54;;;;;;;25.48;10.18;;;;;;;9.55;100.00;96620.44;30505488;19;20007;-73
